Time;durP1;ratioP1;P1;durP2;ratioP2;P2;SDS_P1;SDS_P2;PMS_P1;PMS_P2;Temp;Humidity;BMP_temperature;BMP_pressure;BME280_temperature;BME280_humidity;BME280_pressure;Samples;Min_cycle;Max_cycle;Signal;HPM_P1;HPM_P2
2024/01/04 00:00:03;;;;;;;0.77;0.60;;;6.60;99.90;;;;;;5033641;28;20456;-68
2024/01/04 00:02:30;;;;;;;0.90;0.70;;;6.60;99.90;;;;;;5033503;28;20099;-68
2024/01/04 00:04:57;;;;;;;0.73;0.63;;;6.50;99.90;;;;;;5033596;28;20045;-68
2024/01/04 00:07:22;;;;;;;0.82;0.68;;;6.90;99.90;;;;;;5033347;28;20429;-68
2024/01/04 00:09:48;;;;;;;0.50;0.50;;;6.60;99.90;;;;;;5033141;28;20049;-67
2024/01/04 00:12:14;;;;;;;0.73;0.70;;;6.40;99.90;;;;;;5033163;28;20042;-68
2024/01/04 00:14:40;;;;;;;0.50;0.50;;;6.40;99.90;;;;;;5015815;28;20033;-68
2024/01/04 00:17:06;;;;;;;1.52;0.80;;;6.60;99.90;;;;;;5033258;28;20179;-68
2024/01/04 00:19:32;;;;;;;1.95;0.80;;;6.30;99.90;;;;;;5033263;28;20044;-67
2024/01/04 00:21:57;;;;;;;0.60;0.60;;;6.20;99.90;;;;;;5033309;28;20115;-68
2024/01/04 00:24:23;;;;;;;1.05;0.90;;;6.20;99.90;;;;;;5033199;28;20041;-68
2024/01/04 00:26:49;;;;;;;0.50;0.50;;;6.10;99.90;;;;;;5033162;28;20042;-68
2024/01/04 00:29:15;;;;;;;0.90;0.70;;;6.60;99.90;;;;;;5033255;28;20045;-68
2024/01/04 00:31:41;;;;;;;0.85;0.70;;;;;;;;;;5033166;28;20378;-68
2024/01/04 00:34:08;;;;;;;1.23;0.70;;;;;;;;;;5033073;28;20420;-68
2024/01/04 00:36:34;;;;;;;0.65;0.60;;;;;;;;;;5033039;28;20045;-68
2024/01/04 00:39:00;;;;;;;1.30;0.70;;;6.10;99.90;;;;;;5032954;28;20073;-69
2024/01/04 00:41:25;;;;;;;4.93;1.10;;;6.20;99.90;;;;;;5032945;28;20508;-69
2024/01/04 00:43:51;;;;;;;0.77;0.70;;;6.10;99.90;;;;;;5032496;28;20049;-68
2024/01/04 00:46:17;;;;;;;0.88;0.70;;;6.00;99.90;;;;;;5032974;28;20128;-67
2024/01/04 00:48:42;;;;;;;2.28;0.75;;;6.00;99.90;;;;;;5032809;28;20033;-67
2024/01/04 00:51:08;;;;;;;0.70;0.70;;;6.00;99.90;;;;;;5032498;28;20401;-67
2024/01/04 00:53:34;;;;;;;0.60;0.60;;;6.00;99.90;;;;;;5032410;28;20056;-66
2024/01/04 00:56:00;;;;;;;0.95;0.60;;;6.00;99.90;;;;;;5032513;28;20056;-66
2024/01/04 00:58:26;;;;;;;1.85;1.00;;;6.00;99.90;;;;;;5014721;28;20037;-58
2024/01/04 01:00:52;;;;;;;2.15;1.10;;;6.00;99.90;;;;;;5014879;28;20081;-58
2024/01/04 01:03:17;;;;;;;0.60;0.60;;;6.00;99.90;;;;;;5032514;28;20474;-58
2024/01/04 01:05:43;;;;;;;0.68;0.65;;;6.00;99.90;;;;;;5014507;28;20121;-59
2024/01/04 01:08:10;;;;;;;0.60;0.60;;;6.80;99.90;;;;;;5032264;28;20060;-58
2024/01/04 01:10:35;;;;;;;1.10;0.77;;;6.00;99.90;;;;;;5032502;28;20044;-59
2024/01/04 01:13:01;;;;;;;0.70;0.70;;;6.10;99.90;;;;;;5032431;28;20501;-58
2024/01/04 01:15:27;;;;;;;0.85;0.60;;;5.80;99.90;;;;;;5032041;28;20420;-60
2024/01/04 01:17:53;;;;;;;0.60;0.60;;;5.80;99.90;;;;;;5032236;28;20048;-58
2024/01/04 01:20:19;;;;;;;0.75;0.63;;;5.80;99.90;;;;;;5032339;28;20402;-59
2024/01/04 01:22:44;;;;;;;0.70;0.70;;;5.80;99.90;;;;;;5032262;28;20045;-59
2024/01/04 01:25:10;;;;;;;0.57;0.57;;;6.10;99.90;;;;;;5031952;28;20553;-58
2024/01/04 01:27:36;;;;;;;0.60;0.60;;;5.80;99.90;;;;;;5032270;28;20434;-59
2024/01/04 01:30:02;;;;;;;1.20;0.75;;;6.70;99.90;;;;;;5032184;28;20049;-59
2024/01/04 01:32:28;;;;;;;1.00;0.60;;;5.80;99.90;;;;;;5032209;28;20037;-58
2024/01/04 01:34:54;;;;;;;1.08;0.70;;;5.80;99.90;;;;;;5032176;28;20563;-58
2024/01/04 01:37:21;;;;;;;0.70;0.70;;;5.80;99.90;;;;;;5031895;28;20397;-58
2024/01/04 01:39:46;;;;;;;0.60;0.60;;;6.10;99.90;;;;;;5032135;28;20033;-58
2024/01/04 01:42:12;;;;;;;1.40;0.90;;;5.70;99.90;;;;;;5032171;28;20120;-58
2024/01/04 01:44:38;;;;;;;0.60;0.60;;;5.80;99.90;;;;;;5031992;28;20076;-59
2024/01/04 01:47:04;;;;;;;1.45;0.70;;;5.70;99.90;;;;;;5032068;28;20053;-59
2024/01/04 01:49:31;;;;;;;0.70;0.68;;;5.90;99.90;;;;;;5032139;28;20033;-59
2024/01/04 01:51:57;;;;;;;0.70;0.70;;;6.20;99.90;;;;;;5014281;28;20116;-63
2024/01/04 01:54:23;;;;;;;0.73;0.73;;;5.70;99.90;;;;;;5032056;28;20091;-60
2024/01/04 01:56:49;;;;;;;0.85;0.60;;;5.70;99.90;;;;;;5032064;28;20053;-59
2024/01/04 01:59:16;;;;;;;0.50;0.50;;;5.60;99.90;;;;;;5031890;28;20042;-61
2024/01/04 02:01:42;;;;;;;1.00;0.77;;;5.60;99.90;;;;;;5031691;28;20069;-61
2024/01/04 02:04:08;;;;;;;1.55;0.70;;;5.80;99.90;;;;;;5031768;28;20470;-61
2024/01/04 02:06:33;;;;;;;1.60;1.17;;;5.60;99.90;;;;;;5031569;28;20491;-61
2024/01/04 02:08:59;;;;;;;0.68;0.65;;;5.50;99.90;;;;;;5034452;28;20054;-67
2024/01/04 02:11:26;;;;;;;0.63;0.57;;;5.50;99.90;;;;;;5035765;28;20113;-68
2024/01/04 02:13:52;;;;;;;0.95;0.60;;;5.90;99.90;;;;;;5035405;28;20124;-68
2024/01/04 02:16:18;;;;;;;1.20;0.85;;;5.50;99.90;;;;;;5035682;28;20069;-68
2024/01/04 02:18:44;;;;;;;0.57;0.57;;;5.60;99.90;;;;;;5017937;28;20397;-68
2024/01/04 02:21:10;;;;;;;0.77;0.77;;;5.50;99.90;;;;;;5035639;28;20037;-68
2024/01/04 02:23:35;;;;;;;0.43;0.43;;;5.50;99.90;;;;;;5035471;28;20107;-68
2024/01/04 02:26:01;;;;;;;0.82;0.60;;;5.50;99.90;;;;;;5035483;28;20045;-68
2024/01/04 02:28:27;;;;;;;0.60;0.60;;;5.50;99.90;;;;;;5035392;28;20080;-67
2024/01/04 02:30:53;;;;;;;1.05;0.77;;;5.50;99.90;;;;;;5035384;28;20033;-69
2024/01/04 02:33:18;;;;;;;0.77;0.70;;;5.40;99.90;;;;;;5017253;28;20482;-68
2024/01/04 02:35:44;;;;;;;1.15;0.80;;;5.50;99.90;;;;;;5035341;28;20041;-67
2024/01/04 02:38:10;;;;;;;1.20;0.77;;;5.50;99.90;;;;;;5035186;28;20095;-67
2024/01/04 02:40:36;;;;;;;1.65;0.77;;;5.50;99.90;;;;;;5035244;28;20151;-67
2024/01/04 02:43:02;;;;;;;1.40;0.80;;;5.40;99.90;;;;;;5017102;28;20405;-68
2024/01/04 02:45:27;;;;;;;0.70;0.60;;;5.50;99.90;;;;;;5035142;28;20079;-68
2024/01/04 02:47:53;;;;;;;1.33;0.90;;;5.60;99.90;;;;;;5035124;28;20034;-68
2024/01/04 02:50:18;;;;;;;0.85;0.73;;;5.40;99.90;;;;;;5034967;28;20473;-68
2024/01/04 02:52:45;;;;;;;0.60;0.60;;;5.40;99.90;;;;;;5035036;28;20044;-68
2024/01/04 02:55:11;;;;;;;0.73;0.70;;;;;;;;;;5034890;28;20037;-67
2024/01/04 02:57:36;;;;;;;1.75;0.73;;;5.20;99.90;;;;;;5034915;28;20073;-67
2024/01/04 03:00:03;;;;;;;1.02;0.70;;;5.20;99.90;;;;;;5034874;28;20440;-67
2024/01/04 03:02:28;;;;;;;0.60;0.60;;;5.20;99.90;;;;;;5034683;28;20535;-67
2024/01/04 03:04:54;;;;;;;1.40;0.88;;;5.90;99.90;;;;;;5016631;28;20045;-66
2024/01/04 03:07:19;;;;;;;0.68;0.60;;;5.30;99.90;;;;;;5034516;28;20103;-67
2024/01/04 03:09:48;;;;;;;1.27;0.90;;;5.20;99.90;;;;;;5034560;28;20044;-70
2024/01/04 03:12:14;;;;;;;0.75;0.55;;;5.10;99.90;;;;;;5034353;28;20037;-67
2024/01/04 03:14:39;;;;;;;0.70;0.70;;;5.10;99.90;;;;;;5034201;28;20125;-67
2024/01/04 03:17:05;;;;;;;1.70;0.70;;;5.00;99.90;;;;;;5034263;28;20040;-65
2024/01/04 03:19:31;;;;;;;0.63;0.63;;;5.00;99.90;;;;;;5033202;28;20258;-66
2024/01/04 03:21:56;;;;;;;1.48;0.80;;;4.90;99.90;;;;;;5034440;28;20116;-66
2024/01/04 03:24:22;;;;;;;0.57;0.55;;;5.10;99.90;;;;;;5033958;28;20045;-65
2024/01/04 03:26:47;;;;;;;0.73;0.63;;;4.80;99.90;;;;;;5034274;28;20459;-66
2024/01/04 03:29:13;;;;;;;0.70;0.70;;;4.80;99.90;;;;;;5016640;28;20034;-66
2024/01/04 03:31:39;;;;;;;0.50;0.50;;;4.70;99.90;;;;;;5034258;28;20049;-66
2024/01/04 03:34:05;;;;;;;0.65;0.65;;;4.60;99.90;;;;;;5016167;28;20408;-66
2024/01/04 03:36:30;;;;;;;1.23;0.80;;;4.60;99.90;;;;;;5034185;28;20389;-66
2024/01/04 03:38:56;;;;;;;0.60;0.60;;;4.50;99.90;;;;;;5033941;28;20077;-61
2024/01/04 03:41:21;;;;;;;0.77;0.70;;;4.70;99.90;;;;;;5033747;28;20416;-58
2024/01/04 03:43:47;;;;;;;0.93;0.63;;;4.50;99.90;;;;;;5034013;28;20045;-58
2024/01/04 03:46:13;;;;;;;2.15;0.98;;;4.50;99.90;;;;;;5033672;28;20038;-58
2024/01/04 03:48:39;;;;;;;2.30;1.00;;;4.50;99.90;;;;;;5016305;28;20072;-66
2024/01/04 03:51:04;;;;;;;0.98;0.65;;;4.70;99.90;;;;;;5033926;28;20134;-65
2024/01/04 03:53:30;;;;;;;0.90;0.75;;;4.30;99.90;;;;;;5033863;28;20506;-66
2024/01/04 03:55:56;;;;;;;2.85;1.00;;;4.40;99.90;;;;;;5033722;28;20037;-66
2024/01/04 03:58:21;;;;;;;0.57;0.57;;;4.30;99.90;;;;;;5033818;28;20423;-66
2024/01/04 04:00:47;;;;;;;0.50;0.50;;;4.30;99.90;;;;;;5033740;28;20042;-66
2024/01/04 04:03:17;;;;;;;0.50;0.50;;;4.30;99.90;;;;;;5033574;28;20069;-66
2024/01/04 04:05:44;;;;;;;0.93;0.60;;;5.00;99.90;;;;;;5033320;28;20041;-66
2024/01/04 04:08:10;;;;;;;0.52;0.52;;;4.40;99.90;;;;;;5033245;28;20064;-66
2024/01/04 04:10:35;;;;;;;1.05;0.70;;;4.40;99.90;;;;;;5033479;28;20041;-65
2024/01/04 04:13:01;;;;;;;1.10;0.70;;;4.40;99.90;;;;;;5033413;28;20515;-67
2024/01/04 04:15:26;;;;;;;1.10;0.88;;;4.90;99.90;;;;;;5033136;28;20056;-66
2024/01/04 04:17:55;;;;;;;0.50;0.50;;;4.40;99.90;;;;;;5033453;28;20091;-58
2024/01/04 04:20:20;;;;;;;0.70;0.70;;;4.40;99.90;;;;;;5033341;28;20045;-59
2024/01/04 04:22:46;;;;;;;0.55;0.55;;;4.50;99.90;;;;;;5033270;28;20042;-63
2024/01/04 04:25:12;;;;;;;0.82;0.60;;;4.30;99.90;;;;;;5033266;28;20044;-58
2024/01/04 04:27:38;;;;;;;0.50;0.50;;;4.20;99.90;;;;;;5032904;28;20117;-59
2024/01/04 04:30:05;;;;;;;0.65;0.65;;;4.20;99.90;;;;;;5033042;28;20091;-58
2024/01/04 04:32:31;;;;;;;1.02;1.00;;;4.20;99.90;;;;;;5033029;28;20179;-58
2024/01/04 04:34:56;;;;;;;0.50;0.50;;;4.80;99.90;;;;;;5032737;28;20149;-58
2024/01/04 04:37:22;;;;;;;1.65;0.65;;;4.20;99.90;;;;;;5015056;28;20485;-58
2024/01/04 04:39:48;;;;;;;0.52;0.52;;;4.50;99.90;;;;;;5033091;28;20037;-58
2024/01/04 04:42:14;;;;;;;0.70;0.65;;;4.20;99.90;;;;;;5032930;28;20183;-58
2024/01/04 04:44:39;;;;;;;0.82;0.65;;;4.10;99.90;;;;;;5032525;28;20048;-58
2024/01/04 04:47:05;;;;;;;0.93;0.80;;;4.10;99.90;;;;;;5032887;28;20049;-58
2024/01/04 04:49:31;;;;;;;0.63;0.63;;;4.10;99.90;;;;;;5032567;28;20276;-58
2024/01/04 04:51:56;;;;;;;1.27;0.65;;;4.10;99.90;;;;;;5032764;28;20393;-58
2024/01/04 04:54:22;;;;;;;0.52;0.52;;;4.10;99.90;;;;;;5014725;28;20065;-58
2024/01/04 04:56:48;;;;;;;0.52;0.52;;;4.10;99.90;;;;;;5032445;28;20116;-58
2024/01/04 04:59:14;;;;;;;0.65;0.65;;;4.10;99.90;;;;;;5032383;28;20576;-58
2024/01/04 05:01:40;;;;;;;0.60;0.60;;;4.10;99.90;;;;;;5032637;28;20073;-58
2024/01/04 05:04:06;;;;;;;0.98;0.77;;;4.10;99.90;;;;;;5032121;28;20047;-59
2024/01/04 05:06:31;;;;;;;0.57;0.57;;;4.10;99.90;;;;;;5014641;28;20045;-58
2024/01/04 05:08:57;;;;;;;0.80;0.80;;;4.30;99.90;;;;;;5032115;28;20563;-59
2024/01/04 05:11:23;;;;;;;0.50;0.50;;;4.10;99.90;;;;;;5032143;28;20091;-58
2024/01/04 05:13:48;;;;;;;0.52;0.52;;;4.10;99.90;;;;;;5014333;28;20060;-58
2024/01/04 05:16:14;;;;;;;0.60;0.60;;;4.10;99.90;;;;;;5032449;28;20466;-59
2024/01/04 05:18:40;;;;;;;0.50;0.50;;;4.10;99.90;;;;;;5032374;28;20478;-58
2024/01/04 05:21:05;;;;;;;0.98;0.90;;;4.10;99.90;;;;;;5032088;28;20124;-59
2024/01/04 05:23:31;;;;;;;0.60;0.60;;;4.10;99.90;;;;;;5032017;28;20068;-61
2024/01/04 05:25:56;;;;;;;0.55;0.55;;;5.00;99.90;;;;;;5032328;28;20056;-58
2024/01/04 05:28:22;;;;;;;0.90;0.60;;;4.20;99.90;;;;;;5014385;28;20091;-58
2024/01/04 05:30:48;;;;;;;1.38;0.70;;;4.10;99.90;;;;;;5032299;28;20041;-66
2024/01/04 05:33:14;;;;;;;0.80;0.50;;;4.20;99.90;;;;;;5032236;28;20116;-67
2024/01/04 05:35:39;;;;;;;0.50;0.50;;;4.20;99.90;;;;;;5032165;28;20037;-66
2024/01/04 05:38:05;;;;;;;1.10;0.50;;;4.60;99.90;;;;;;5032164;28;20469;-66
2024/01/04 05:40:31;;;;;;;0.80;0.80;;;4.20;99.90;;;;;;5032297;28;20038;-67
2024/01/04 05:42:57;;;;;;;0.50;0.50;;;4.20;99.90;;;;;;5033014;28;20073;-66
2024/01/04 05:45:23;;;;;;;0.60;0.60;;;4.20;99.90;;;;;;5018451;28;20041;-66
2024/01/04 05:47:49;;;;;;;0.70;0.55;;;4.20;99.90;;;;;;5036195;28;20102;-65
2024/01/04 05:50:15;;;;;;;0.57;0.50;;;4.20;99.90;;;;;;5036179;28;20052;-66
2024/01/04 05:52:40;;;;;;;0.50;0.50;;;4.20;99.90;;;;;;5036169;28;20041;-65
2024/01/04 05:55:07;;;;;;;0.70;0.70;;;4.20;99.90;;;;;;5036054;28;20038;-66
2024/01/04 05:57:34;;;;;;;1.30;0.95;;;4.20;99.90;;;;;;5036093;28;20500;-67
2024/01/04 05:59:59;;;;;;;0.75;0.70;;;4.10;99.90;;;;;;5035720;28;20087;-66
2024/01/04 06:02:27;;;;;;;0.70;0.70;;;4.10;99.90;;;;;;5035665;28;20030;-65
2024/01/04 06:04:56;;;;;;;0.75;0.60;;;4.90;99.90;;;;;;5035605;28;20049;-65
2024/01/04 06:07:22;;;;;;;0.60;0.60;;;4.10;99.90;;;;;;5035622;28;20076;-66
2024/01/04 06:09:48;;;;;;;2.30;0.90;;;4.10;99.90;;;;;;5035818;28;20045;-66
2024/01/04 06:12:14;;;;;;;1.27;0.50;;;4.00;99.90;;;;;;5035750;28;20038;-66
2024/01/04 06:14:40;;;;;;;0.70;0.70;;;4.20;99.90;;;;;;5035676;28;20041;-66
2024/01/04 06:17:07;;;;;;;1.70;0.85;;;4.40;99.90;;;;;;5035709;28;20099;-66
2024/01/04 06:19:33;;;;;;;1.02;0.52;;;4.00;99.90;;;;;;5035643;28;20049;-66
2024/01/04 06:21:59;;;;;;;0.70;0.60;;;3.90;99.90;;;;;;5035384;28;20041;-66
2024/01/04 06:24:24;;;;;;;1.08;0.80;;;3.90;99.90;;;;;;5035528;28;20046;-66
2024/01/04 06:26:51;;;;;;;0.43;0.40;;;4.40;99.90;;;;;;5035463;28;20038;-65
2024/01/04 06:29:18;;;;;;;1.25;0.80;;;3.90;99.90;;;;;;5035031;28;20108;-66
2024/01/04 06:31:44;;;;;;;1.15;0.80;;;3.90;99.90;;;;;;5035280;28;20461;-65
2024/01/04 06:34:10;;;;;;;0.95;0.50;;;3.80;99.90;;;;;;5035066;28;20064;-65
2024/01/04 06:36:36;;;;;;;0.55;0.55;;;3.80;99.90;;;;;;5017226;28;20050;-66
2024/01/04 06:39:01;;;;;;;0.68;0.60;;;4.30;99.90;;;;;;5035358;28;20405;-67
2024/01/04 06:41:29;;;;;;;0.82;0.60;;;4.70;99.90;;;;;;5034882;28;20041;-67
2024/01/04 06:43:56;;;;;;;0.80;0.70;;;3.80;99.90;;;;;;5017021;28;20150;-67
2024/01/04 06:46:22;;;;;;;0.85;0.60;;;4.10;99.90;;;;;;5035185;28;20460;-67
2024/01/04 06:48:47;;;;;;;0.65;0.65;;;3.80;99.90;;;;;;5034935;28;20086;-66
2024/01/04 06:51:13;;;;;;;0.60;0.60;;;3.70;99.90;;;;;;5034768;28;20112;-65
2024/01/04 06:53:39;;;;;;;0.50;0.50;;;3.70;99.90;;;;;;5034353;28;20152;-65
2024/01/04 06:56:04;;;;;;;1.02;0.80;;;3.60;99.90;;;;;;5034622;28;20049;-66
2024/01/04 06:58:30;;;;;;;0.50;0.50;;;3.60;99.90;;;;;;5034541;28;20048;-66
2024/01/04 07:00:56;;;;;;;0.50;0.50;;;3.60;99.90;;;;;;5034822;28;20116;-67
2024/01/04 07:03:22;;;;;;;0.82;0.70;;;3.50;99.90;;;;;;5034754;28;20048;-69
2024/01/04 07:05:49;;;;;;;1.02;0.70;;;3.80;99.90;;;;;;5034469;28;20114;-70
2024/01/04 07:08:14;;;;;;;1.77;0.90;;;3.60;99.90;;;;;;5034376;28;20046;-69
2024/01/04 07:10:40;;;;;;;0.80;0.80;;;3.50;99.90;;;;;;5034679;28;20044;-70
2024/01/04 07:13:06;;;;;;;0.70;0.70;;;3.70;99.90;;;;;;5016573;28;20041;-70
2024/01/04 07:15:32;;;;;;;0.70;0.70;;;3.50;99.90;;;;;;5034642;28;20113;-67
2024/01/04 07:17:58;;;;;;;1.15;0.77;;;3.40;99.90;;;;;;5034627;28;20088;-68
2024/01/04 07:20:23;;;;;;;0.40;0.40;;;3.20;99.90;;;;;;5034551;28;20076;-67
2024/01/04 07:22:52;;;;;;;0.60;0.60;;;3.50;99.90;;;;;;5034299;28;20048;-67
2024/01/04 07:25:18;;;;;;;0.55;0.55;;;3.40;99.90;;;;;;5034185;28;20046;-67
2024/01/04 07:27:44;;;;;;;0.55;0.55;;;3.50;99.90;;;;;;5034449;28;20508;-65
2024/01/04 07:30:10;;;;;;;0.85;0.75;;;3.50;99.90;;;;;;5034378;28;20041;-67
2024/01/04 07:32:36;;;;;;;0.77;0.77;;;3.50;99.90;;;;;;5033990;28;20045;-69
2024/01/04 07:35:01;;;;;;;1.02;0.98;;;4.20;99.90;;;;;;5034202;28;20129;-65
2024/01/04 07:37:27;;;;;;;0.70;0.70;;;3.40;99.90;;;;;;5034227;28;20401;-65
2024/01/04 07:39:53;;;;;;;0.70;0.70;;;3.40;99.90;;;;;;5033818;28;20033;-65
2024/01/04 07:42:19;;;;;;;0.70;0.70;;;3.30;99.90;;;;;;5034109;28;20041;-67
2024/01/04 07:44:44;;;;;;;0.90;0.60;;;3.30;99.90;;;;;;5034044;28;20068;-67
2024/01/04 07:47:10;;;;;;;0.40;0.40;;;3.30;99.90;;;;;;5034012;28;20366;-67
2024/01/04 07:49:35;;;;;;;0.47;0.47;;;3.30;99.90;;;;;;5033805;28;20124;-67
2024/01/04 07:52:01;;;;;;;1.60;0.80;;;3.30;99.90;;;;;;5033942;28;20131;-67
2024/01/04 07:54:26;;;;;;;0.73;0.73;;;3.30;99.90;;;;;;5033894;28;20041;-68
2024/01/04 07:56:52;;;;;;;0.55;0.55;;;3.30;99.90;;;;;;5033830;28;20400;-67
2024/01/04 07:59:18;;;;;;;1.85;0.90;;;3.30;99.90;;;;;;5033755;28;20045;-66
2024/01/04 08:01:44;;;;;;;0.70;0.70;;;3.30;99.90;;;;;;5033629;28;20060;-66
2024/01/04 08:04:09;;;;;;;1.15;0.70;;;3.10;99.90;;;;;;5033572;28;20485;-69
2024/01/04 08:06:35;;;;;;;0.85;0.75;;;3.90;99.90;;;;;;5032894;28;20516;-67
2024/01/04 08:09:01;;;;;;;0.70;0.70;;;3.30;99.90;;;;;;5012313;28;20524;-68
2024/01/04 08:11:26;;;;;;;0.80;0.80;;;3.30;99.90;;;;;;5013460;28;20044;-66
2024/01/04 08:13:52;;;;;;;0.80;0.75;;;3.30;99.90;;;;;;5012130;28;20048;-66
2024/01/04 08:16:18;;;;;;;2.35;1.05;;;3.20;99.90;;;;;;5013651;28;20393;-66
2024/01/04 08:18:44;;;;;;;0.85;0.70;;;3.30;99.90;;;;;;5013398;28;20044;-66
2024/01/04 08:21:10;;;;;;;0.95;0.52;;;3.30;99.90;;;;;;5013568;28;20038;-65
2024/01/04 08:23:40;;;;;;;0.70;0.70;;;3.30;99.90;;;;;;5013493;28;20053;-66
2024/01/04 08:26:05;;;;;;;1.20;0.77;;;3.30;99.90;;;;;;5013538;28;20398;-66
2024/01/04 08:28:31;;;;;;;1.13;0.80;;;3.30;99.90;;;;;;5013169;28;20049;-66
2024/01/04 08:30:57;;;;;;;0.70;0.70;;;3.30;99.90;;;;;;5013361;28;20045;-66
2024/01/04 08:33:22;;;;;;;0.70;0.70;;;3.30;99.90;;;;;;5013008;28;20541;-66
2024/01/04 08:35:48;;;;;;;0.77;0.70;;;3.20;99.90;;;;;;5012056;28;20045;-66
2024/01/04 08:38:14;;;;;;;0.75;0.65;;;3.10;99.90;;;;;;5013564;28;20041;-66
2024/01/04 08:40:39;;;;;;;0.90;0.73;;;3.30;99.90;;;;;;5013290;28;20046;-65
2024/01/04 08:43:06;;;;;;;0.75;0.70;;;3.30;99.90;;;;;;5013424;28;20156;-66
2024/01/04 08:45:32;;;;;;;0.70;0.70;;;3.30;99.90;;;;;;5012924;28;20120;-66
2024/01/04 08:47:58;;;;;;;0.73;0.68;;;4.00;99.90;;;;;;5013033;28;20513;-69
2024/01/04 08:50:23;;;;;;;0.65;0.60;;;3.30;99.90;;;;;;5013010;28;20045;-66
2024/01/04 08:52:49;;;;;;;1.50;1.40;;;3.30;99.90;;;;;;5012682;28;20509;-66
2024/01/04 08:55:15;;;;;;;2.00;1.08;;;3.40;99.90;;;;;;5013202;28;20034;-66
2024/01/04 08:57:41;;;;;;;1.58;0.90;;;3.40;99.90;;;;;;5012973;28;20084;-66
2024/01/04 09:00:07;;;;;;;0.80;0.60;;;3.40;99.90;;;;;;5012771;28;20038;-66
2024/01/04 09:02:32;;;;;;;0.60;0.60;;;3.40;99.90;;;;;;5012573;28;20046;-66
2024/01/04 09:04:58;;;;;;;0.85;0.70;;;3.20;99.90;;;;;;5012767;28;20038;-67
2024/01/04 09:07:26;;;;;;;0.98;0.80;;;3.50;99.90;;;;;;5018509;28;20486;-66
2024/01/04 09:09:52;;;;;;;1.00;0.80;;;3.50;99.90;;;;;;5032413;28;20049;-66
2024/01/04 09:12:18;;;;;;;0.63;0.60;;;4.10;99.90;;;;;;5032435;28;20037;-66
2024/01/04 09:14:46;;;;;;;1.38;0.70;;;4.60;99.90;;;;;;5032453;28;20429;-66
2024/01/04 09:17:11;;;;;;;0.82;0.68;;;3.80;99.90;;;;;;5032454;28;20060;-65
2024/01/04 09:19:39;;;;;;;0.77;0.65;;;3.70;99.90;;;;;;5032505;28;20485;-66
2024/01/04 09:22:05;;;;;;;1.00;0.68;;;3.70;99.90;;;;;;5032329;28;20049;-66
2024/01/04 09:24:32;;;;;;;2.72;0.90;;;3.80;99.90;;;;;;5032232;28;20049;-66
2024/01/04 09:26:58;;;;;;;0.80;0.80;;;3.60;99.90;;;;;;5032033;28;20446;-66
2024/01/04 09:29:24;;;;;;;0.73;0.73;;;3.90;99.90;;;;;;5032311;28;20052;-66
2024/01/04 09:31:49;;;;;;;0.50;0.50;;;3.70;99.90;;;;;;5032226;28;20033;-66
2024/01/04 09:34:15;;;;;;;0.60;0.60;;;3.90;99.90;;;;;;5032223;28;20417;-66
2024/01/04 09:36:41;;;;;;;0.60;0.60;;;4.00;99.90;;;;;;5032242;28;20077;-67
2024/01/04 09:39:07;;;;;;;0.75;0.73;;;4.10;99.90;;;;;;5031818;28;20511;-66
2024/01/04 09:41:35;;;;;;;1.15;0.90;;;4.10;99.90;;;;;;5031992;28;20042;-66
2024/01/04 09:44:05;;;;;;;1.60;0.90;;;4.60;99.90;;;;;;5031679;28;20053;-66
2024/01/04 09:46:35;;;;;;;1.20;0.70;;;4.20;99.90;;;;;;5032333;28;20037;-66
2024/01/04 09:49:02;;;;;;;1.17;0.70;;;4.80;99.90;;;;;;5032074;28;20064;-66
2024/01/04 09:51:34;;;;;;;0.88;0.80;;;4.30;99.90;;;;;;5032067;28;20489;-66
2024/01/04 09:54:04;;;;;;;0.63;0.63;;;4.50;99.90;;;;;;5032095;28;20486;-58
2024/01/04 09:56:32;;;;;;;2.05;1.13;;;4.30;99.90;;;;;;5032076;28;20489;-59
2024/01/04 09:58:58;;;;;;;0.80;0.80;;;4.80;99.90;;;;;;5031925;28;20037;-59
2024/01/04 10:01:30;;;;;;;0.65;0.60;;;4.20;99.90;;;;;;5031966;28;20041;-58
2024/01/04 10:04:03;;;;;;;1.75;0.98;;;4.20;99.90;;;;;;5013869;28;20056;-58
2024/01/04 10:06:34;;;;;;;1.40;0.88;;;4.10;99.90;;;;;;5031965;28;20040;-58
2024/01/04 10:09:17;;;;;;;1.25;0.75;;;4.00;99.90;;;;;;5031520;28;20057;-59
2024/01/04 10:12:05;;;;;;;0.80;0.70;;;4.10;99.90;;;;;;5031932;28;20401;-66
2024/01/04 10:14:31;;;;;;;0.77;0.70;;;4.10;99.90;;;;;;5031820;28;20401;-66
2024/01/04 10:16:57;;;;;;;1.50;0.90;;;4.20;99.90;;;;;;5031862;28;20033;-67
2024/01/04 10:19:23;;;;;;;0.60;0.60;;;4.70;99.90;;;;;;5031522;28;20051;-66
2024/01/04 10:21:50;;;;;;;0.50;0.50;;;4.30;99.90;;;;;;5031668;28;20041;-66
2024/01/04 10:24:23;;;;;;;0.95;0.82;;;4.30;99.90;;;;;;5031673;28;20049;-66
2024/01/04 10:26:57;;;;;;;0.68;0.68;;;4.30;99.90;;;;;;5014026;28;20087;-66
2024/01/04 10:29:24;;;;;;;0.60;0.60;;;4.30;99.90;;;;;;5033215;28;20080;-67
2024/01/04 10:32:03;;;;;;;0.93;0.70;;;4.40;99.90;;;;;;5017698;28;20053;-67
2024/01/04 10:34:29;;;;;;;0.60;0.60;;;4.50;99.90;;;;;;5035344;28;20038;-66
2024/01/04 10:37:08;;;;;;;0.93;0.80;;;4.30;99.90;;;;;;5035393;28;20045;-66
2024/01/04 10:39:34;;;;;;;0.60;0.60;;;4.70;99.90;;;;;;5017566;28;20103;-68
2024/01/04 10:42:01;;;;;;;0.68;0.68;;;4.70;99.90;;;;;;5034898;28;20049;-66
2024/01/04 10:44:28;;;;;;;1.13;0.73;;;4.60;99.90;;;;;;5035094;28;20120;-66
2024/01/04 10:46:59;;;;;;;0.85;0.50;;;5.50;99.90;;;;;;5035206;28;20044;-66
2024/01/04 10:49:25;;;;;;;0.60;0.60;;;5.20;99.90;;;;;;5035199;28;20116;-66
2024/01/04 10:51:58;;;;;;;0.60;0.60;;;4.80;99.90;;;;;;5034993;28;20096;-66
2024/01/04 10:54:32;;;;;;;0.73;0.60;;;4.90;99.90;;;;;;5035030;28;20045;-66
2024/01/04 10:57:02;;;;;;;0.60;0.60;;;4.90;99.90;;;;;;5034983;28;20104;-66
2024/01/04 10:59:29;;;;;;;0.98;0.80;;;4.70;99.90;;;;;;5034812;28;20037;-66
2024/01/04 11:01:59;;;;;;;0.75;0.63;;;4.90;99.90;;;;;;5016866;28;20464;-67
2024/01/04 11:04:26;;;;;;;0.60;0.60;;;5.60;99.90;;;;;;5034489;28;20046;-66
2024/01/04 11:06:52;;;;;;;0.70;0.70;;;5.10;99.90;;;;;;5034584;28;20155;-66
2024/01/04 11:09:19;;;;;;;0.52;0.52;;;5.20;99.90;;;;;;5034727;28;20041;-66
2024/01/04 11:11:46;;;;;;;0.70;0.70;;;5.30;99.90;;;;;;5034745;28;20084;-66
2024/01/04 11:14:11;;;;;;;1.27;0.90;;;5.20;99.90;;;;;;5034623;28;20437;-65
2024/01/04 11:16:40;;;;;;;0.77;0.70;;;5.30;99.90;;;;;;5034604;28;20044;-66
2024/01/04 11:19:59;;;;;;;0.60;0.60;;;5.30;99.90;;;;;;5034533;28;20095;-66
2024/01/04 11:22:41;;;;;;;0.65;0.65;;;5.30;99.90;;;;;;5030686;28;20450;-59
2024/01/04 11:25:26;;;;;;;0.52;0.52;;;5.40;99.90;;;;;;5034444;28;20408;-58
2024/01/04 11:27:53;;;;;;;0.60;0.60;;;5.40;99.90;;;;;;5034186;28;20049;-59
2024/01/04 11:30:19;;;;;;;0.60;0.60;;;6.00;99.90;;;;;;5034169;28;20046;-59
2024/01/04 11:32:45;;;;;;;0.75;0.75;;;5.40;99.90;;;;;;5034312;28;20063;-59
2024/01/04 11:35:11;;;;;;;0.75;0.75;;;5.70;99.90;;;;;;5034306;28;20469;-59
2024/01/04 11:37:37;;;;;;;0.82;0.80;;;5.40;99.90;;;;;;5034245;28;20048;-61
2024/01/04 11:40:07;;;;;;;1.10;0.95;;;5.30;99.90;;;;;;5033280;28;20481;-59
2024/01/04 11:42:33;;;;;;;0.55;0.52;;;5.50;99.90;;;;;;5034087;28;20116;-58
2024/01/04 11:45:08;;;;;;;0.60;0.60;;;5.40;99.90;;;;;;5033959;28;20045;-60
2024/01/04 11:47:39;;;;;;;0.52;0.52;;;5.70;99.90;;;;;;5034003;28;20167;-59
2024/01/04 11:50:14;;;;;;;0.70;0.70;;;5.70;99.90;;;;;;5033948;28;20134;-62
2024/01/04 11:52:40;;;;;;;1.10;0.60;;;6.10;99.90;;;;;;5033857;28;20056;-59
2024/01/04 11:55:06;;;;;;;0.60;0.60;;;6.10;99.90;;;;;;5033835;28;20397;-59
2024/01/04 11:57:32;;;;;;;0.90;0.90;;;5.80;99.90;;;;;;5033867;28;20052;-61
2024/01/04 11:59:57;;;;;;;1.20;0.75;;;6.20;99.90;;;;;;5033802;28;20477;-59
2024/01/04 12:02:24;;;;;;;0.93;0.55;;;6.30;99.90;;;;;;5033551;28;20033;-59
2024/01/04 12:04:50;;;;;;;0.70;0.70;;;6.20;99.90;;;;;;5033308;28;20120;-59
2024/01/04 12:07:17;;;;;;;0.80;0.80;;;6.10;99.90;;;;;;5033338;28;20053;-60
2024/01/04 12:09:42;;;;;;;1.40;0.73;;;6.40;99.90;;;;;;5033455;28;20049;-59
2024/01/04 12:12:09;;;;;;;1.48;0.68;;;5.90;99.90;;;;;;5015722;28;20033;-59
2024/01/04 12:14:35;;;;;;;0.60;0.60;;;6.10;99.90;;;;;;5033151;28;20041;-59
2024/01/04 12:17:01;;;;;;;0.90;0.75;;;6.50;99.90;;;;;;5033043;28;20224;-59
2024/01/04 12:19:27;;;;;;;0.55;0.50;;;6.30;99.90;;;;;;5015515;28;20448;-60
2024/01/04 12:21:54;;;;;;;2.15;0.80;;;6.30;99.90;;;;;;5033376;28;20088;-59
2024/01/04 12:24:20;;;;;;;0.93;0.93;;;6.00;99.90;;;;;;5033287;28;20072;-59
2024/01/04 12:26:46;;;;;;;2.80;0.80;;;6.10;99.90;;;;;;5033309;28;20508;-59
2024/01/04 12:29:11;;;;;;;0.60;0.60;;;6.10;99.90;;;;;;5033207;28;20044;-59
2024/01/04 12:31:42;;;;;;;0.57;0.57;;;5.70;99.90;;;;;;5033218;28;20132;-60
2024/01/04 12:34:09;;;;;;;0.73;0.70;;;6.10;99.90;;;;;;5015190;28;20041;-59
2024/01/04 12:36:35;;;;;;;0.50;0.50;;;6.40;99.90;;;;;;5015073;28;20052;-59
2024/01/04 12:39:12;;;;;;;0.70;0.70;;;5.70;99.90;;;;;;5033005;28;20033;-59
2024/01/04 12:41:39;;;;;;;1.25;0.80;;;5.50;99.90;;;;;;5015035;28;20495;-59
2024/01/04 12:44:07;;;;;;;0.73;0.70;;;5.80;99.90;;;;;;5032770;28;20041;-59
2024/01/04 12:46:33;;;;;;;0.80;0.80;;;5.60;99.90;;;;;;5032586;28;20127;-58
2024/01/04 12:49:12;;;;;;;0.60;0.60;;;6.00;99.90;;;;;;5014900;28;20037;-59
2024/01/04 12:51:39;;;;;;;0.80;0.80;;;6.40;99.90;;;;;;5032707;28;20042;-59
2024/01/04 12:54:05;;;;;;;0.80;0.80;;;5.60;99.90;;;;;;5032545;28;20076;-59